sensor_id;sensor_type;location;lat;lon;timestamp;temperature;humidity
24468;DHT22;12634;50.852;5.676;2023-04-23T00:00:30;10.60;99.90
24468;DHT22;12634;50.852;5.676;2023-04-23T00:03:00;10.60;99.90
24468;DHT22;12634;50.852;5.676;2023-04-23T00:05:29;10.60;99.90
24468;DHT22;12634;50.852;5.676;2023-04-23T00:07:59;10.50;99.90
24468;DHT22;12634;50.852;5.676;2023-04-23T00:10:29;10.50;99.90
24468;DHT22;12634;50.852;5.676;2023-04-23T00:12:56;10.40;99.90
24468;DHT22;12634;50.852;5.676;2023-04-23T00:15:24;10.30;99.90
24468;DHT22;12634;50.852;5.676;2023-04-23T00:17:51;10.30;99.90
24468;DHT22;12634;50.852;5.676;2023-04-23T00:20:19;10.40;99.90
24468;DHT22;12634;50.852;5.676;2023-04-23T00:22:46;10.30;99.90
24468;DHT22;12634;50.852;5.676;2023-04-23T00:25:13;10.30;99.90
24468;DHT22;12634;50.852;5.676;2023-04-23T00:27:42;10.20;99.90
24468;DHT22;12634;50.852;5.676;2023-04-23T00:30:09;10.20;99.90
24468;DHT22;12634;50.852;5.676;2023-04-23T00:32:37;10.30;99.90
24468;DHT22;12634;50.852;5.676;2023-04-23T00:35:05;10.30;99.90
24468;DHT22;12634;50.852;5.676;2023-04-23T00:37:32;10.40;99.90
24468;DHT22;12634;50.852;5.676;2023-04-23T00:39:59;10.40;99.90
24468;DHT22;12634;50.852;5.676;2023-04-23T00:42:27;10.50;99.90
24468;DHT22;12634;50.852;5.676;2023-04-23T00:44:56;10.50;99.90
24468;DHT22;12634;50.852;5.676;2023-04-23T00:47:23;10.50;99.90
24468;DHT22;12634;50.852;5.676;2023-04-23T00:49:51;10.40;99.90
24468;DHT22;12634;50.852;5.676;2023-04-23T00:52:20;10.40;99.90
24468;DHT22;12634;50.852;5.676;2023-04-23T00:54:47;10.40;99.90
24468;DHT22;12634;50.852;5.676;2023-04-23T00:57:14;10.50;99.90
24468;DHT22;12634;50.852;5.676;2023-04-23T00:59:42;10.40;99.90
24468;DHT22;12634;50.852;5.676;2023-04-23T01:02:11;10.30;99.90
24468;DHT22;12634;50.852;5.676;2023-04-23T01:04:40;10.40;99.90
24468;DHT22;12634;50.852;5.676;2023-04-23T01:07:08;10.40;99.90
24468;DHT22;12634;50.852;5.676;2023-04-23T01:09:36;10.20;99.90
24468;DHT22;12634;50.852;5.676;2023-04-23T01:12:04;10.20;99.90
24468;DHT22;12634;50.852;5.676;2023-04-23T01:14:32;10.30;99.90
24468;DHT22;12634;50.852;5.676;2023-04-23T01:17:00;10.20;99.90
24468;DHT22;12634;50.852;5.676;2023-04-23T01:19:29;10.10;99.90
24468;DHT22;12634;50.852;5.676;2023-04-23T01:21:56;10.20;99.90
24468;DHT22;12634;50.852;5.676;2023-04-23T01:24:27;10.20;99.90
24468;DHT22;12634;50.852;5.676;2023-04-23T01:26:55;10.30;99.90
24468;DHT22;12634;50.852;5.676;2023-04-23T01:29:23;10.30;99.90
24468;DHT22;12634;50.852;5.676;2023-04-23T01:31:50;10.40;99.90
24468;DHT22;12634;50.852;5.676;2023-04-23T01:34:19;10.40;99.90
24468;DHT22;12634;50.852;5.676;2023-04-23T01:36:47;10.50;99.90
24468;DHT22;12634;50.852;5.676;2023-04-23T01:39:14;10.40;99.90
24468;DHT22;12634;50.852;5.676;2023-04-23T01:41:43;10.50;99.90
24468;DHT22;12634;50.852;5.676;2023-04-23T01:44:11;10.40;99.90
24468;DHT22;12634;50.852;5.676;2023-04-23T01:46:38;10.40;99.90
24468;DHT22;12634;50.852;5.676;2023-04-23T01:49:05;10.40;99.90
24468;DHT22;12634;50.852;5.676;2023-04-23T01:51:32;10.40;99.90
24468;DHT22;12634;50.852;5.676;2023-04-23T01:54:00;10.40;99.90
24468;DHT22;12634;50.852;5.676;2023-04-23T01:56:27;10.40;99.90
24468;DHT22;12634;50.852;5.676;2023-04-23T01:58:56;10.40;99.90
24468;DHT22;12634;50.852;5.676;2023-04-23T02:01:23;10.40;99.90
24468;DHT22;12634;50.852;5.676;2023-04-23T02:03:51;10.40;99.90
24468;DHT22;12634;50.852;5.676;2023-04-23T02:06:18;10.40;99.90
24468;DHT22;12634;50.852;5.676;2023-04-23T02:08:45;10.50;99.90
24468;DHT22;12634;50.852;5.676;2023-04-23T02:11:12;10.50;99.90
24468;DHT22;12634;50.852;5.676;2023-04-23T02:13:40;10.40;99.90
24468;DHT22;12634;50.852;5.676;2023-04-23T02:16:09;10.40;99.90
24468;DHT22;12634;50.852;5.676;2023-04-23T02:18:37;10.50;99.90
24468;DHT22;12634;50.852;5.676;2023-04-23T02:21:04;10.50;99.90
24468;DHT22;12634;50.852;5.676;2023-04-23T02:23:33;10.50;99.90
24468;DHT22;12634;50.852;5.676;2023-04-23T02:26:00;10.60;99.90
24468;DHT22;12634;50.852;5.676;2023-04-23T02:28:27;10.60;99.90
24468;DHT22;12634;50.852;5.676;2023-04-23T02:30:56;10.60;99.90
24468;DHT22;12634;50.852;5.676;2023-04-23T02:33:24;10.60;99.90
24468;DHT22;12634;50.852;5.676;2023-04-23T02:35:51;10.60;99.90
24468;DHT22;12634;50.852;5.676;2023-04-23T02:38:18;10.70;99.90
24468;DHT22;12634;50.852;5.676;2023-04-23T02:40:45;10.70;99.90
24468;DHT22;12634;50.852;5.676;2023-04-23T02:43:12;10.60;99.90
24468;DHT22;12634;50.852;5.676;2023-04-23T02:45:40;10.60;99.90
24468;DHT22;12634;50.852;5.676;2023-04-23T02:48:07;10.60;99.90
24468;DHT22;12634;50.852;5.676;2023-04-23T02:50:35;10.60;99.90
24468;DHT22;12634;50.852;5.676;2023-04-23T02:53:03;10.70;99.90
24468;DHT22;12634;50.852;5.676;2023-04-23T02:55:31;10.70;99.90
24468;DHT22;12634;50.852;5.676;2023-04-23T02:57:59;10.70;99.90
24468;DHT22;12634;50.852;5.676;2023-04-23T03:00:26;10.70;99.90
24468;DHT22;12634;50.852;5.676;2023-04-23T03:02:53;10.70;99.90
24468;DHT22;12634;50.852;5.676;2023-04-23T03:05:21;10.60;99.90
24468;DHT22;12634;50.852;5.676;2023-04-23T03:07:49;10.60;99.90
24468;DHT22;12634;50.852;5.676;2023-04-23T03:10:17;10.70;99.90
24468;DHT22;12634;50.852;5.676;2023-04-23T03:12:44;10.80;99.90
24468;DHT22;12634;50.852;5.676;2023-04-23T03:15:11;10.70;99.90
24468;DHT22;12634;50.852;5.676;2023-04-23T03:17:38;10.80;99.90
24468;DHT22;12634;50.852;5.676;2023-04-23T03:20:07;10.80;99.90
24468;DHT22;12634;50.852;5.676;2023-04-23T03:22:36;10.80;99.90
24468;DHT22;12634;50.852;5.676;2023-04-23T03:25:05;10.80;99.90
24468;DHT22;12634;50.852;5.676;2023-04-23T03:27:33;10.80;99.90
24468;DHT22;12634;50.852;5.676;2023-04-23T03:30:00;10.80;99.90
24468;DHT22;12634;50.852;5.676;2023-04-23T03:32:27;10.90;99.90
24468;DHT22;12634;50.852;5.676;2023-04-23T03:34:54;10.90;99.90
24468;DHT22;12634;50.852;5.676;2023-04-23T03:37:22;10.90;99.90
24468;DHT22;12634;50.852;5.676;2023-04-23T03:39:49;11.00;99.90
24468;DHT22;12634;50.852;5.676;2023-04-23T03:42:18;10.90;99.90
24468;DHT22;12634;50.852;5.676;2023-04-23T03:44:45;10.90;99.90
24468;DHT22;12634;50.852;5.676;2023-04-23T03:47:12;11.00;99.90
24468;DHT22;12634;50.852;5.676;2023-04-23T03:49:39;11.10;99.90
24468;DHT22;12634;50.852;5.676;2023-04-23T03:52:06;11.10;99.90
24468;DHT22;12634;50.852;5.676;2023-04-23T03:54:33;11.10;99.90
24468;DHT22;12634;50.852;5.676;2023-04-23T03:57:00;11.10;99.90
24468;DHT22;12634;50.852;5.676;2023-04-23T03:59:29;11.10;99.90
24468;DHT22;12634;50.852;5.676;2023-04-23T04:01:56;11.20;99.90
24468;DHT22;12634;50.852;5.676;2023-04-23T04:04:23;11.10;99.90
24468;DHT22;12634;50.852;5.676;2023-04-23T04:06:51;11.20;99.90
24468;DHT22;12634;50.852;5.676;2023-04-23T04:09:18;11.20;99.90
24468;DHT22;12634;50.852;5.676;2023-04-23T04:11:45;11.20;99.90
24468;DHT22;12634;50.852;5.676;2023-04-23T04:14:12;11.30;99.90
24468;DHT22;12634;50.852;5.676;2023-04-23T04:16:41;11.30;99.90
24468;DHT22;12634;50.852;5.676;2023-04-23T04:19:08;11.30;99.90
24468;DHT22;12634;50.852;5.676;2023-04-23T04:21:35;11.30;99.90
24468;DHT22;12634;50.852;5.676;2023-04-23T04:24:03;11.30;99.90
24468;DHT22;12634;50.852;5.676;2023-04-23T04:26:30;11.30;99.90
24468;DHT22;12634;50.852;5.676;2023-04-23T04:28:59;11.30;99.90
24468;DHT22;12634;50.852;5.676;2023-04-23T04:31:26;11.30;99.90
24468;DHT22;12634;50.852;5.676;2023-04-23T04:33:55;11.30;99.90
24468;DHT22;12634;50.852;5.676;2023-04-23T04:36:22;11.30;99.90
24468;DHT22;12634;50.852;5.676;2023-04-23T04:38:51;11.30;99.90
24468;DHT22;12634;50.852;5.676;2023-04-23T04:41:20;11.30;99.90
24468;DHT22;12634;50.852;5.676;2023-04-23T04:43:50;11.30;99.90
24468;DHT22;12634;50.852;5.676;2023-04-23T04:46:17;11.20;99.90
24468;DHT22;12634;50.852;5.676;2023-04-23T04:48:45;11.20;99.90
24468;DHT22;12634;50.852;5.676;2023-04-23T04:51:14;11.20;99.90
24468;DHT22;12634;50.852;5.676;2023-04-23T04:53:41;11.20;99.90
24468;DHT22;12634;50.852;5.676;2023-04-23T04:56:08;11.20;99.90
24468;DHT22;12634;50.852;5.676;2023-04-23T04:58:35;11.30;99.90
24468;DHT22;12634;50.852;5.676;2023-04-23T05:01:03;11.30;99.90
24468;DHT22;12634;50.852;5.676;2023-04-23T05:03:31;11.30;99.90
24468;DHT22;12634;50.852;5.676;2023-04-23T05:05:58;11.30;99.90
24468;DHT22;12634;50.852;5.676;2023-04-23T05:08:26;11.20;99.90
24468;DHT22;12634;50.852;5.676;2023-04-23T05:10:53;11.30;99.90
24468;DHT22;12634;50.852;5.676;2023-04-23T05:13:21;11.30;99.90
24468;DHT22;12634;50.852;5.676;2023-04-23T05:15:48;11.30;99.90
24468;DHT22;12634;50.852;5.676;2023-04-23T05:18:15;11.30;99.90
24468;DHT22;12634;50.852;5.676;2023-04-23T05:20:42;11.30;99.90
24468;DHT22;12634;50.852;5.676;2023-04-23T05:23:09;11.20;99.90
24468;DHT22;12634;50.852;5.676;2023-04-23T05:25:38;11.30;99.90
24468;DHT22;12634;50.852;5.676;2023-04-23T05:28:05;11.30;99.90
24468;DHT22;12634;50.852;5.676;2023-04-23T05:30:33;11.30;99.90
24468;DHT22;12634;50.852;5.676;2023-04-23T05:33:00;11.30;99.90
24468;DHT22;12634;50.852;5.676;2023-04-23T05:35:27;11.20;99.90
24468;DHT22;12634;50.852;5.676;2023-04-23T05:37:56;11.30;99.90
24468;DHT22;12634;50.852;5.676;2023-04-23T05:40:23;11.50;99.90
24468;DHT22;12634;50.852;5.676;2023-04-23T05:42:52;11.60;99.90
24468;DHT22;12634;50.852;5.676;2023-04-23T05:45:19;11.60;99.90
24468;DHT22;12634;50.852;5.676;2023-04-23T05:47:46;11.70;99.90
24468;DHT22;12634;50.852;5.676;2023-04-23T05:50:13;11.90;99.90
24468;DHT22;12634;50.852;5.676;2023-04-23T05:52:40;12.50;99.90
24468;DHT22;12634;50.852;5.676;2023-04-23T05:55:08;12.80;99.90
24468;DHT22;12634;50.852;5.676;2023-04-23T05:57:35;12.70;99.90
24468;DHT22;12634;50.852;5.676;2023-04-23T06:00:06;12.30;99.90
24468;DHT22;12634;50.852;5.676;2023-04-23T06:02:36;12.30;99.90
24468;DHT22;12634;50.852;5.676;2023-04-23T06:05:04;12.30;99.90
24468;DHT22;12634;50.852;5.676;2023-04-23T06:07:31;12.10;99.90
24468;DHT22;12634;50.852;5.676;2023-04-23T06:09:59;12.00;99.90
24468;DHT22;12634;50.852;5.676;2023-04-23T06:12:26;12.00;99.90
24468;DHT22;12634;50.852;5.676;2023-04-23T06:14:53;12.10;99.90
24468;DHT22;12634;50.852;5.676;2023-04-23T06:17:22;12.60;99.90
24468;DHT22;12634;50.852;5.676;2023-04-23T06:19:49;12.80;99.90
24468;DHT22;12634;50.852;5.676;2023-04-23T06:22:17;12.70;99.90
24468;DHT22;12634;50.852;5.676;2023-04-23T06:24:44;12.70;99.90
24468;DHT22;12634;50.852;5.676;2023-04-23T06:27:11;13.20;99.90
24468;DHT22;12634;50.852;5.676;2023-04-23T06:29:38;13.60;99.90
24468;DHT22;12634;50.852;5.676;2023-04-23T06:32:05;13.60;99.90
24468;DHT22;12634;50.852;5.676;2023-04-23T06:34:34;13.70;99.90
24468;DHT22;12634;50.852;5.676;2023-04-23T06:37:01;13.60;99.90
24468;DHT22;12634;50.852;5.676;2023-04-23T06:39:28;13.70;99.90
24468;DHT22;12634;50.852;5.676;2023-04-23T06:41:55;13.90;99.90
24468;DHT22;12634;50.852;5.676;2023-04-23T06:44:23;14.00;99.90
24468;DHT22;12634;50.852;5.676;2023-04-23T06:46:50;13.80;99.90
24468;DHT22;12634;50.852;5.676;2023-04-23T06:49:17;13.70;99.90
24468;DHT22;12634;50.852;5.676;2023-04-23T06:51:45;13.90;99.90
24468;DHT22;12634;50.852;5.676;2023-04-23T06:54:12;14.10;99.90
24468;DHT22;12634;50.852;5.676;2023-04-23T06:56:40;14.40;99.90
24468;DHT22;12634;50.852;5.676;2023-04-23T06:59:07;15.00;99.90
24468;DHT22;12634;50.852;5.676;2023-04-23T07:01:34;15.00;99.90
24468;DHT22;12634;50.852;5.676;2023-04-23T07:04:01;15.40;99.90
24468;DHT22;12634;50.852;5.676;2023-04-23T07:06:28;14.70;99.90
24468;DHT22;12634;50.852;5.676;2023-04-23T07:08:57;14.90;99.90
24468;DHT22;12634;50.852;5.676;2023-04-23T07:11:24;15.20;99.90
24468;DHT22;12634;50.852;5.676;2023-04-23T07:13:51;14.90;99.90
24468;DHT22;12634;50.852;5.676;2023-04-23T07:16:18;14.80;99.90
24468;DHT22;12634;50.852;5.676;2023-04-23T07:18:47;14.80;99.90
24468;DHT22;12634;50.852;5.676;2023-04-23T07:21:15;14.90;99.90
24468;DHT22;12634;50.852;5.676;2023-04-23T07:23:42;15.10;99.90
24468;DHT22;12634;50.852;5.676;2023-04-23T07:26:10;14.90;99.90
24468;DHT22;12634;50.852;5.676;2023-04-23T07:28:37;14.90;99.90
24468;DHT22;12634;50.852;5.676;2023-04-23T07:31:04;15.30;99.90
24468;DHT22;12634;50.852;5.676;2023-04-23T07:33:32;15.40;99.90
24468;DHT22;12634;50.852;5.676;2023-04-23T07:35:59;15.60;99.90
24468;DHT22;12634;50.852;5.676;2023-04-23T07:38:26;15.50;99.90
24468;DHT22;12634;50.852;5.676;2023-04-23T07:40:54;15.60;99.90
24468;DHT22;12634;50.852;5.676;2023-04-23T07:43:22;15.70;99.90
24468;DHT22;12634;50.852;5.676;2023-04-23T07:45:49;15.50;99.90
24468;DHT22;12634;50.852;5.676;2023-04-23T07:48:16;15.80;99.90
24468;DHT22;12634;50.852;5.676;2023-04-23T07:50:44;16.10;99.90
24468;DHT22;12634;50.852;5.676;2023-04-23T07:53:11;16.10;99.90
24468;DHT22;12634;50.852;5.676;2023-04-23T07:55:38;15.80;99.90
24468;DHT22;12634;50.852;5.676;2023-04-23T07:58:05;16.00;99.90
24468;DHT22;12634;50.852;5.676;2023-04-23T08:00:35;16.20;99.90
24468;DHT22;12634;50.852;5.676;2023-04-23T08:03:02;16.00;99.90
24468;DHT22;12634;50.852;5.676;2023-04-23T08:05:29;16.60;99.90
24468;DHT22;12634;50.852;5.676;2023-04-23T08:07:56;16.70;99.90
24468;DHT22;12634;50.852;5.676;2023-04-23T08:10:23;16.40;99.90
24468;DHT22;12634;50.852;5.676;2023-04-23T08:12:50;16.10;99.90
24468;DHT22;12634;50.852;5.676;2023-04-23T08:15:17;15.90;99.90
24468;DHT22;12634;50.852;5.676;2023-04-23T08:17:46;15.70;99.90
24468;DHT22;12634;50.852;5.676;2023-04-23T08:20:13;16.20;99.90
24468;DHT22;12634;50.852;5.676;2023-04-23T08:22:40;16.50;99.90
24468;DHT22;12634;50.852;5.676;2023-04-23T08:25:08;16.60;99.90
24468;DHT22;12634;50.852;5.676;2023-04-23T08:27:35;16.90;99.90
24468;DHT22;12634;50.852;5.676;2023-04-23T08:30:03;16.70;99.90
24468;DHT22;12634;50.852;5.676;2023-04-23T08:32:31;16.90;99.90
24468;DHT22;12634;50.852;5.676;2023-04-23T08:34:59;17.20;99.90
24468;DHT22;12634;50.852;5.676;2023-04-23T08:37:27;17.60;99.90
24468;DHT22;12634;50.852;5.676;2023-04-23T08:39:54;17.30;99.90
24468;DHT22;12634;50.852;5.676;2023-04-23T08:42:26;17.40;99.90
24468;DHT22;12634;50.852;5.676;2023-04-23T08:44:56;17.10;99.90
24468;DHT22;12634;50.852;5.676;2023-04-23T08:47:24;16.80;99.90
24468;DHT22;12634;50.852;5.676;2023-04-23T08:49:54;16.50;99.90
24468;DHT22;12634;50.852;5.676;2023-04-23T08:52:24;16.70;99.90
24468;DHT22;12634;50.852;5.676;2023-04-23T08:54:53;16.70;99.90
24468;DHT22;12634;50.852;5.676;2023-04-23T08:57:25;17.00;99.90
24468;DHT22;12634;50.852;5.676;2023-04-23T08:59:53;17.00;99.90
24468;DHT22;12634;50.852;5.676;2023-04-23T09:02:20;16.90;99.90
24468;DHT22;12634;50.852;5.676;2023-04-23T09:04:49;17.00;99.90
24468;DHT22;12634;50.852;5.676;2023-04-23T09:07:18;16.90;99.90
24468;DHT22;12634;50.852;5.676;2023-04-23T09:09:47;16.70;99.90
24468;DHT22;12634;50.852;5.676;2023-04-23T09:12:14;16.60;99.90
24468;DHT22;12634;50.852;5.676;2023-04-23T09:14:41;16.70;99.90
24468;DHT22;12634;50.852;5.676;2023-04-23T09:17:08;16.90;99.90
24468;DHT22;12634;50.852;5.676;2023-04-23T09:19:36;16.60;99.90
24468;DHT22;12634;50.852;5.676;2023-04-23T09:22:06;17.30;99.90
24468;DHT22;12634;50.852;5.676;2023-04-23T09:24:34;17.20;99.90
24468;DHT22;12634;50.852;5.676;2023-04-23T09:27:03;17.50;99.90
24468;DHT22;12634;50.852;5.676;2023-04-23T09:29:30;16.60;99.90
24468;DHT22;12634;50.852;5.676;2023-04-23T09:32:07;16.40;99.90
24468;DHT22;12634;50.852;5.676;2023-04-23T09:34:35;16.50;99.90
24468;DHT22;12634;50.852;5.676;2023-04-23T09:37:03;16.30;99.90
24468;DHT22;12634;50.852;5.676;2023-04-23T09:39:33;16.30;99.90
24468;DHT22;12634;50.852;5.676;2023-04-23T09:42:04;15.90;99.90
24468;DHT22;12634;50.852;5.676;2023-04-23T09:44:34;16.20;99.90
24468;DHT22;12634;50.852;5.676;2023-04-23T09:47:08;16.80;99.90
24468;DHT22;12634;50.852;5.676;2023-04-23T09:49:46;16.50;99.90
24468;DHT22;12634;50.852;5.676;2023-04-23T09:52:14;16.30;99.90
24468;DHT22;12634;50.852;5.676;2023-04-23T09:54:42;16.00;99.90
24468;DHT22;12634;50.852;5.676;2023-04-23T09:57:12;16.10;99.90
24468;DHT22;12634;50.852;5.676;2023-04-23T09:59:39;15.80;99.90
24468;DHT22;12634;50.852;5.676;2023-04-23T10:02:07;15.90;99.90
24468;DHT22;12634;50.852;5.676;2023-04-23T10:04:36;15.90;99.90
24468;DHT22;12634;50.852;5.676;2023-04-23T10:07:04;16.20;99.90
24468;DHT22;12634;50.852;5.676;2023-04-23T10:09:33;16.10;99.90
24468;DHT22;12634;50.852;5.676;2023-04-23T10:12:01;16.10;99.90
24468;DHT22;12634;50.852;5.676;2023-04-23T10:14:30;16.00;99.90
24468;DHT22;12634;50.852;5.676;2023-04-23T10:16:59;16.40;99.90
24468;DHT22;12634;50.852;5.676;2023-04-23T10:19:26;16.60;99.90
24468;DHT22;12634;50.852;5.676;2023-04-23T10:21:55;16.40;99.90
24468;DHT22;12634;50.852;5.676;2023-04-23T10:24:26;16.40;99.90
24468;DHT22;12634;50.852;5.676;2023-04-23T10:26:56;16.50;99.90
24468;DHT22;12634;50.852;5.676;2023-04-23T10:29:27;16.40;99.90
24468;DHT22;12634;50.852;5.676;2023-04-23T10:31:58;16.20;99.90
24468;DHT22;12634;50.852;5.676;2023-04-23T10:34:26;16.50;99.90
24468;DHT22;12634;50.852;5.676;2023-04-23T10:36:54;16.90;99.90
24468;DHT22;12634;50.852;5.676;2023-04-23T10:39:26;16.80;99.90
24468;DHT22;12634;50.852;5.676;2023-04-23T10:41:54;16.60;99.90
24468;DHT22;12634;50.852;5.676;2023-04-23T10:44:21;17.10;99.90
24468;DHT22;12634;50.852;5.676;2023-04-23T10:46:52;17.10;99.90
24468;DHT22;12634;50.852;5.676;2023-04-23T10:49:23;17.00;99.90
24468;DHT22;12634;50.852;5.676;2023-04-23T10:51:58;16.90;99.90
24468;DHT22;12634;50.852;5.676;2023-04-23T10:54:28;17.00;99.90
24468;DHT22;12634;50.852;5.676;2023-04-23T10:57:01;17.00;99.90
24468;DHT22;12634;50.852;5.676;2023-04-23T10:59:30;16.70;99.90
24468;DHT22;12634;50.852;5.676;2023-04-23T11:02:04;16.80;99.90
24468;DHT22;12634;50.852;5.676;2023-04-23T11:04:34;16.70;99.90
24468;DHT22;12634;50.852;5.676;2023-04-23T11:07:05;16.50;99.90
24468;DHT22;12634;50.852;5.676;2023-04-23T11:09:37;16.60;99.90
24468;DHT22;12634;50.852;5.676;2023-04-23T11:12:07;16.60;99.90
24468;DHT22;12634;50.852;5.676;2023-04-23T11:14:42;16.70;99.90
24468;DHT22;12634;50.852;5.676;2023-04-23T11:17:12;16.80;99.90
24468;DHT22;12634;50.852;5.676;2023-04-23T11:20:05;16.90;99.90
24468;DHT22;12634;50.852;5.676;2023-04-23T11:22:36;17.00;99.90
24468;DHT22;12634;50.852;5.676;2023-04-23T11:25:07;17.10;99.90
24468;DHT22;12634;50.852;5.676;2023-04-23T11:27:38;16.90;99.90
24468;DHT22;12634;50.852;5.676;2023-04-23T11:30:10;17.10;99.90
24468;DHT22;12634;50.852;5.676;2023-04-23T11:32:38;17.50;99.90
24468;DHT22;12634;50.852;5.676;2023-04-23T11:35:08;17.50;99.90
24468;DHT22;12634;50.852;5.676;2023-04-23T11:37:38;17.50;99.90
24468;DHT22;12634;50.852;5.676;2023-04-23T11:40:07;17.50;99.90
24468;DHT22;12634;50.852;5.676;2023-04-23T11:42:40;17.70;99.90
24468;DHT22;12634;50.852;5.676;2023-04-23T11:45:17;18.50;99.90
24468;DHT22;12634;50.852;5.676;2023-04-23T11:47:46;18.50;99.90
24468;DHT22;12634;50.852;5.676;2023-04-23T11:50:19;18.10;99.90
24468;DHT22;12634;50.852;5.676;2023-04-23T11:52:46;17.90;99.90
24468;DHT22;12634;50.852;5.676;2023-04-23T11:55:15;18.20;99.90
24468;DHT22;12634;50.852;5.676;2023-04-23T11:57:43;18.10;99.90
24468;DHT22;12634;50.852;5.676;2023-04-23T12:00:16;18.50;99.90
24468;DHT22;12634;50.852;5.676;2023-04-23T12:02:54;18.20;99.90
24468;DHT22;12634;50.852;5.676;2023-04-23T12:05:26;17.60;99.90
24468;DHT22;12634;50.852;5.676;2023-04-23T12:07:54;17.20;99.90
24468;DHT22;12634;50.852;5.676;2023-04-23T12:10:32;17.10;99.90
24468;DHT22;12634;50.852;5.676;2023-04-23T12:12:59;16.90;99.90
24468;DHT22;12634;50.852;5.676;2023-04-23T12:15:26;16.90;99.90
24468;DHT22;12634;50.852;5.676;2023-04-23T12:18:07;16.70;99.90
24468;DHT22;12634;50.852;5.676;2023-04-23T12:20:37;16.90;99.90
24468;DHT22;12634;50.852;5.676;2023-04-23T12:23:05;16.90;99.90
24468;DHT22;12634;50.852;5.676;2023-04-23T12:25:33;16.80;99.90
24468;DHT22;12634;50.852;5.676;2023-04-23T12:28:00;16.90;99.90
24468;DHT22;12634;50.852;5.676;2023-04-23T12:30:29;17.00;99.90
24468;DHT22;12634;50.852;5.676;2023-04-23T12:32:58;16.90;99.90
24468;DHT22;12634;50.852;5.676;2023-04-23T12:35:38;17.00;99.90
24468;DHT22;12634;50.852;5.676;2023-04-23T12:38:08;16.70;99.90
24468;DHT22;12634;50.852;5.676;2023-04-23T12:40:46;16.80;99.90
24468;DHT22;12634;50.852;5.676;2023-04-23T12:43:14;16.80;99.90
24468;DHT22;12634;50.852;5.676;2023-04-23T12:45:43;16.60;99.90
24468;DHT22;12634;50.852;5.676;2023-04-23T12:48:11;16.40;99.90
24468;DHT22;12634;50.852;5.676;2023-04-23T12:50:39;16.30;99.90
24468;DHT22;12634;50.852;5.676;2023-04-23T12:53:06;16.40;99.90
24468;DHT22;12634;50.852;5.676;2023-04-23T12:55:34;16.60;99.90
24468;DHT22;12634;50.852;5.676;2023-04-23T12:58:02;16.50;99.90
24468;DHT22;12634;50.852;5.676;2023-04-23T13:00:29;16.30;99.90
24468;DHT22;12634;50.852;5.676;2023-04-23T13:02:56;15.50;99.90
24468;DHT22;12634;50.852;5.676;2023-04-23T13:05:24;14.10;99.90
24468;DHT22;12634;50.852;5.676;2023-04-23T13:07:52;13.70;99.90
24468;DHT22;12634;50.852;5.676;2023-04-23T13:10:19;13.60;99.90
24468;DHT22;12634;50.852;5.676;2023-04-23T13:12:46;13.60;99.90
24468;DHT22;12634;50.852;5.676;2023-04-23T13:15:13;13.70;99.90
24468;DHT22;12634;50.852;5.676;2023-04-23T13:17:41;13.70;99.90
24468;DHT22;12634;50.852;5.676;2023-04-23T13:20:08;13.60;99.90
24468;DHT22;12634;50.852;5.676;2023-04-23T13:22:35;13.60;99.90
24468;DHT22;12634;50.852;5.676;2023-04-23T13:25:05;13.50;99.90
24468;DHT22;12634;50.852;5.676;2023-04-23T13:27:32;13.50;99.90
24468;DHT22;12634;50.852;5.676;2023-04-23T13:29:59;13.50;99.90
24468;DHT22;12634;50.852;5.676;2023-04-23T13:32:27;13.40;99.90
24468;DHT22;12634;50.852;5.676;2023-04-23T13:34:56;13.40;99.90
24468;DHT22;12634;50.852;5.676;2023-04-23T13:37:28;13.40;99.90
24468;DHT22;12634;50.852;5.676;2023-04-23T13:39:56;13.50;99.90
24468;DHT22;12634;50.852;5.676;2023-04-23T13:42:24;13.40;99.90
24468;DHT22;12634;50.852;5.676;2023-04-23T13:44:51;13.40;99.90
24468;DHT22;12634;50.852;5.676;2023-04-23T13:47:18;13.30;99.90
24468;DHT22;12634;50.852;5.676;2023-04-23T13:49:45;13.40;99.90
24468;DHT22;12634;50.852;5.676;2023-04-23T13:52:13;13.40;99.90
24468;DHT22;12634;50.852;5.676;2023-04-23T13:54:40;13.40;99.90
24468;DHT22;12634;50.852;5.676;2023-04-23T13:57:07;13.40;99.90
24468;DHT22;12634;50.852;5.676;2023-04-23T13:59:36;13.40;99.90
24468;DHT22;12634;50.852;5.676;2023-04-23T14:02:04;13.40;99.90
24468;DHT22;12634;50.852;5.676;2023-04-23T14:04:31;13.40;99.90
24468;DHT22;12634;50.852;5.676;2023-04-23T14:06:58;13.40;99.90
24468;DHT22;12634;50.852;5.676;2023-04-23T14:09:25;13.30;99.90
24468;DHT22;12634;50.852;5.676;2023-04-23T14:11:55;13.30;99.90
24468;DHT22;12634;50.852;5.676;2023-04-23T14:14:22;13.40;99.90
24468;DHT22;12634;50.852;5.676;2023-04-23T14:16:52;13.40;99.90
24468;DHT22;12634;50.852;5.676;2023-04-23T14:19:19;13.40;99.90
24468;DHT22;12634;50.852;5.676;2023-04-23T14:21:46;13.40;99.90
24468;DHT22;12634;50.852;5.676;2023-04-23T14:24:20;13.40;99.90
24468;DHT22;12634;50.852;5.676;2023-04-23T14:26:48;13.40;99.90
24468;DHT22;12634;50.852;5.676;2023-04-23T14:29:23;13.40;99.90
24468;DHT22;12634;50.852;5.676;2023-04-23T14:31:52;13.40;99.90
24468;DHT22;12634;50.852;5.676;2023-04-23T14:34:19;13.40;99.90
24468;DHT22;12634;50.852;5.676;2023-04-23T14:36:47;13.30;99.90
24468;DHT22;12634;50.852;5.676;2023-04-23T14:39:15;13.30;99.90
24468;DHT22;12634;50.852;5.676;2023-04-23T14:41:42;13.30;99.90
24468;DHT22;12634;50.852;5.676;2023-04-23T14:44:10;13.30;99.90
24468;DHT22;12634;50.852;5.676;2023-04-23T14:46:37;13.30;99.90
24468;DHT22;12634;50.852;5.676;2023-04-23T14:49:06;13.40;99.90
24468;DHT22;12634;50.852;5.676;2023-04-23T14:51:33;13.40;99.90
24468;DHT22;12634;50.852;5.676;2023-04-23T14:54:02;13.40;99.90
24468;DHT22;12634;50.852;5.676;2023-04-23T14:56:29;13.40;99.90
24468;DHT22;12634;50.852;5.676;2023-04-23T14:58:56;13.50;99.90
24468;DHT22;12634;50.852;5.676;2023-04-23T15:01:23;13.50;99.90
24468;DHT22;12634;50.852;5.676;2023-04-23T15:03:51;13.70;99.90
24468;DHT22;12634;50.852;5.676;2023-04-23T15:06:20;13.90;99.90
24468;DHT22;12634;50.852;5.676;2023-04-23T15:08:47;14.10;99.90
24468;DHT22;12634;50.852;5.676;2023-04-23T15:11:14;14.40;99.90
24468;DHT22;12634;50.852;5.676;2023-04-23T15:13:51;14.60;99.90
24468;DHT22;12634;50.852;5.676;2023-04-23T15:16:26;14.90;99.90
24468;DHT22;12634;50.852;5.676;2023-04-23T15:18:56;14.80;99.90
24468;DHT22;12634;50.852;5.676;2023-04-23T15:21:25;14.90;99.90
24468;DHT22;12634;50.852;5.676;2023-04-23T15:23:52;14.90;99.90
24468;DHT22;12634;50.852;5.676;2023-04-23T15:26:20;14.90;99.90
24468;DHT22;12634;50.852;5.676;2023-04-23T15:28:47;14.80;99.90
24468;DHT22;12634;50.852;5.676;2023-04-23T15:31:15;14.80;99.90
24468;DHT22;12634;50.852;5.676;2023-04-23T15:33:42;14.60;99.90
24468;DHT22;12634;50.852;5.676;2023-04-23T15:36:09;14.60;99.90